sensor_id;sensor_type;location;lat;lon;timestamp;pressure;altitude;pressure_sealevel;temperature;humidity
45078;BME280;60508;42.622;25.416;2022-12-18T00:02:18;97380.41;;;11.38;94.05
45078;BME280;60508;42.622;25.416;2022-12-18T00:04:44;97377.72;;;11.38;94.43
45078;BME280;60508;42.622;25.416;2022-12-18T00:07:10;97383.81;;;11.45;93.82
45078;BME280;60508;42.622;25.416;2022-12-18T00:09:36;97391.78;;;11.40;93.62
45078;BME280;60508;42.622;25.416;2022-12-18T00:12:02;97382.06;;;11.39;93.84
45078;BME280;60508;42.622;25.416;2022-12-18T00:14:28;97392.94;;;11.56;92.75
45078;BME280;60508;42.622;25.416;2022-12-18T00:16:53;97388.38;;;11.57;91.84
45078;BME280;60508;42.622;25.416;2022-12-18T00:19:19;97391.88;;;11.57;91.99
45078;BME280;60508;42.622;25.416;2022-12-18T00:21:45;97390.00;;;11.58;91.44
45078;BME280;60508;42.622;25.416;2022-12-18T00:24:11;97390.25;;;11.56;90.95
45078;BME280;60508;42.622;25.416;2022-12-18T00:26:38;97397.38;;;11.50;91.14
45078;BME280;60508;42.622;25.416;2022-12-18T00:29:11;97401.94;;;11.38;91.82
45078;BME280;60508;42.622;25.416;2022-12-18T00:31:39;97399.13;;;11.33;92.38
45078;BME280;60508;42.622;25.416;2022-12-18T00:34:05;97412.59;;;11.33;93.17
45078;BME280;60508;42.622;25.416;2022-12-18T00:36:33;97414.22;;;11.46;92.47
45078;BME280;60508;42.622;25.416;2022-12-18T00:39:03;97405.94;;;11.47;92.11
45078;BME280;60508;42.622;25.416;2022-12-18T00:41:29;97418.00;;;11.57;91.58
45078;BME280;60508;42.622;25.416;2022-12-18T00:44:16;97428.75;;;11.57;91.00
45078;BME280;60508;42.622;25.416;2022-12-18T00:46:42;97428.28;;;11.60;90.88
45078;BME280;60508;42.622;25.416;2022-12-18T00:49:12;97423.94;;;11.59;90.58
45078;BME280;60508;42.622;25.416;2022-12-18T00:51:38;97441.06;;;11.64;90.27
45078;BME280;60508;42.622;25.416;2022-12-18T00:54:03;97438.94;;;11.78;88.76
45078;BME280;60508;42.622;25.416;2022-12-18T00:56:30;97432.25;;;11.69;88.90
45078;BME280;60508;42.622;25.416;2022-12-18T00:58:56;97436.94;;;11.74;88.68
45078;BME280;60508;42.622;25.416;2022-12-18T01:01:21;97430.75;;;11.73;88.55
45078;BME280;60508;42.622;25.416;2022-12-18T01:03:47;97431.19;;;11.82;88.02
45078;BME280;60508;42.622;25.416;2022-12-18T01:06:16;97430.84;;;11.78;87.50
45078;BME280;60508;42.622;25.416;2022-12-18T01:08:42;97425.59;;;11.72;87.55
45078;BME280;60508;42.622;25.416;2022-12-18T01:11:13;97432.97;;;11.64;87.95
45078;BME280;60508;42.622;25.416;2022-12-18T01:13:40;97436.59;;;11.70;87.87
45078;BME280;60508;42.622;25.416;2022-12-18T01:16:07;97440.94;;;11.71;87.78
45078;BME280;60508;42.622;25.416;2022-12-18T01:18:35;97428.63;;;11.75;87.86
45078;BME280;60508;42.622;25.416;2022-12-18T01:21:05;97429.31;;;11.70;88.45
45078;BME280;60508;42.622;25.416;2022-12-18T01:23:31;97424.91;;;11.64;88.59
45078;BME280;60508;42.622;25.416;2022-12-18T01:26:05;97423.72;;;11.72;89.15
45078;BME280;60508;42.622;25.416;2022-12-18T01:28:33;97428.38;;;11.77;89.19
45078;BME280;60508;42.622;25.416;2022-12-18T01:33:38;97434.03;;;11.87;88.37
45078;BME280;60508;42.622;25.416;2022-12-18T01:36:05;97431.09;;;12.00;86.89
45078;BME280;60508;42.622;25.416;2022-12-18T01:38:31;97426.75;;;11.99;86.63
45078;BME280;60508;42.622;25.416;2022-12-18T01:40:58;97428.03;;;11.85;87.59
45078;BME280;60508;42.622;25.416;2022-12-18T01:44:00;97418.34;;;11.60;88.61
45078;BME280;60508;42.622;25.416;2022-12-18T01:46:27;97417.28;;;11.61;89.26
45078;BME280;60508;42.622;25.416;2022-12-18T01:48:59;97425.22;;;11.56;89.30
45078;BME280;60508;42.622;25.416;2022-12-18T01:51:27;97425.50;;;11.55;89.60
45078;BME280;60508;42.622;25.416;2022-12-18T01:53:54;97422.41;;;11.51;90.00
45078;BME280;60508;42.622;25.416;2022-12-18T01:56:21;97412.34;;;11.46;90.01
45078;BME280;60508;42.622;25.416;2022-12-18T01:59:03;97424.19;;;11.45;90.05
45078;BME280;60508;42.622;25.416;2022-12-18T02:01:32;97415.78;;;11.42;89.93
45078;BME280;60508;42.622;25.416;2022-12-18T02:06:45;97423.56;;;11.20;91.14
45078;BME280;60508;42.622;25.416;2022-12-18T02:09:41;97440.69;;;11.37;90.90
45078;BME280;60508;42.622;25.416;2022-12-18T02:12:19;97437.63;;;11.57;89.54
45078;BME280;60508;42.622;25.416;2022-12-18T02:17:20;97427.56;;;11.52;88.88
45078;BME280;60508;42.622;25.416;2022-12-18T02:20:05;97435.75;;;11.58;88.46
45078;BME280;60508;42.622;25.416;2022-12-18T02:27:41;97426.59;;;11.23;90.41
45078;BME280;60508;42.622;25.416;2022-12-18T02:30:10;97434.09;;;11.21;91.68
45078;BME280;60508;42.622;25.416;2022-12-18T02:32:44;97427.75;;;11.15;92.27
45078;BME280;60508;42.622;25.416;2022-12-18T02:35:18;97428.13;;;11.19;92.24
45078;BME280;60508;42.622;25.416;2022-12-18T02:37:47;97430.09;;;11.24;92.42
45078;BME280;60508;42.622;25.416;2022-12-18T02:40:14;97440.88;;;11.24;92.09
45078;BME280;60508;42.622;25.416;2022-12-18T02:42:41;97434.78;;;11.17;92.06
45078;BME280;60508;42.622;25.416;2022-12-18T02:45:10;97443.44;;;11.19;91.95
45078;BME280;60508;42.622;25.416;2022-12-18T02:47:39;97438.41;;;11.22;92.35
45078;BME280;60508;42.622;25.416;2022-12-18T02:50:38;97447.44;;;11.28;91.72
45078;BME280;60508;42.622;25.416;2022-12-18T02:53:36;97436.69;;;11.28;91.44
45078;BME280;60508;42.622;25.416;2022-12-18T02:56:18;97445.09;;;11.31;91.00
45078;BME280;60508;42.622;25.416;2022-12-18T02:58:59;97445.09;;;11.31;91.20
45078;BME280;60508;42.622;25.416;2022-12-18T03:01:59;97445.66;;;11.22;91.30
45078;BME280;60508;42.622;25.416;2022-12-18T03:04:49;97448.03;;;11.30;90.82
45078;BME280;60508;42.622;25.416;2022-12-18T03:07:25;97454.00;;;11.32;90.89
45078;BME280;60508;42.622;25.416;2022-12-18T03:09:55;97458.91;;;11.35;90.81
45078;BME280;60508;42.622;25.416;2022-12-18T03:12:32;97453.53;;;11.35;90.45
45078;BME280;60508;42.622;25.416;2022-12-18T03:15:08;97464.50;;;11.33;90.36
45078;BME280;60508;42.622;25.416;2022-12-18T03:17:36;97466.91;;;11.42;90.15
45078;BME280;60508;42.622;25.416;2022-12-18T03:20:17;97471.31;;;11.36;89.16
45078;BME280;60508;42.622;25.416;2022-12-18T03:22:47;97472.84;;;11.44;89.07
45078;BME280;60508;42.622;25.416;2022-12-18T03:25:17;97464.91;;;11.49;88.21
45078;BME280;60508;42.622;25.416;2022-12-18T03:27:49;97471.31;;;11.48;88.13
45078;BME280;60508;42.622;25.416;2022-12-18T03:30:17;97473.56;;;11.51;87.68
45078;BME280;60508;42.622;25.416;2022-12-18T03:32:47;97476.94;;;11.46;87.69
45078;BME280;60508;42.622;25.416;2022-12-18T03:35:14;97480.81;;;11.39;88.10
45078;BME280;60508;42.622;25.416;2022-12-18T03:37:44;97488.09;;;11.50;87.82
45078;BME280;60508;42.622;25.416;2022-12-18T03:40:10;97494.63;;;11.42;87.89
45078;BME280;60508;42.622;25.416;2022-12-18T03:42:49;97494.38;;;11.44;87.93
45078;BME280;60508;42.622;25.416;2022-12-18T03:45:38;97490.91;;;11.55;86.79
45078;BME280;60508;42.622;25.416;2022-12-18T03:48:19;97490.03;;;11.43;87.24
45078;BME280;60508;42.622;25.416;2022-12-18T03:50:59;97501.53;;;11.50;87.12
45078;BME280;60508;42.622;25.416;2022-12-18T03:56:07;97500.09;;;11.36;87.56
45078;BME280;60508;42.622;25.416;2022-12-18T03:58:39;97502.28;;;11.27;88.02
45078;BME280;60508;42.622;25.416;2022-12-18T04:01:16;97497.50;;;11.29;87.73
45078;BME280;60508;42.622;25.416;2022-12-18T04:03:44;97513.56;;;11.47;87.18
45078;BME280;60508;42.622;25.416;2022-12-18T04:06:13;97510.81;;;11.24;87.83
45078;BME280;60508;42.622;25.416;2022-12-18T04:08:42;97511.19;;;11.27;88.23
45078;BME280;60508;42.622;25.416;2022-12-18T04:11:10;97519.84;;;11.29;87.87
45078;BME280;60508;42.622;25.416;2022-12-18T04:13:38;97515.47;;;11.17;88.54
45078;BME280;60508;42.622;25.416;2022-12-18T04:16:08;97517.81;;;11.13;88.99
45078;BME280;60508;42.622;25.416;2022-12-18T04:18:38;97520.38;;;11.08;89.62
45078;BME280;60508;42.622;25.416;2022-12-18T04:21:04;97511.97;;;11.16;89.46
45078;BME280;60508;42.622;25.416;2022-12-18T04:23:31;97515.94;;;11.13;89.46
45078;BME280;60508;42.622;25.416;2022-12-18T04:25:58;97523.56;;;11.17;89.38
45078;BME280;60508;42.622;25.416;2022-12-18T04:28:46;97526.31;;;10.98;90.15
45078;BME280;60508;42.622;25.416;2022-12-18T04:31:12;97532.06;;;11.13;89.87
45078;BME280;60508;42.622;25.416;2022-12-18T04:33:38;97531.13;;;11.08;89.91
45078;BME280;60508;42.622;25.416;2022-12-18T04:36:05;97543.19;;;11.17;89.23
45078;BME280;60508;42.622;25.416;2022-12-18T04:38:31;97544.50;;;11.26;87.90
45078;BME280;60508;42.622;25.416;2022-12-18T04:41:04;97557.38;;;11.24;88.06
45078;BME280;60508;42.622;25.416;2022-12-18T04:43:30;97566.72;;;11.22;87.81
45078;BME280;60508;42.622;25.416;2022-12-18T04:46:03;97556.41;;;11.19;88.03
45078;BME280;60508;42.622;25.416;2022-12-18T04:48:29;97563.34;;;11.26;87.57
45078;BME280;60508;42.622;25.416;2022-12-18T04:50:55;97574.34;;;11.25;87.70
45078;BME280;60508;42.622;25.416;2022-12-18T04:53:21;97579.13;;;11.23;87.40
45078;BME280;60508;42.622;25.416;2022-12-18T04:55:46;97585.19;;;11.18;88.02
45078;BME280;60508;42.622;25.416;2022-12-18T04:58:12;97585.66;;;11.15;87.98
45078;BME280;60508;42.622;25.416;2022-12-18T05:00:38;97590.25;;;11.26;86.85
45078;BME280;60508;42.622;25.416;2022-12-18T05:03:04;97594.22;;;11.24;86.54
45078;BME280;60508;42.622;25.416;2022-12-18T05:05:30;97594.38;;;11.10;87.25
45078;BME280;60508;42.622;25.416;2022-12-18T05:07:55;97600.34;;;11.12;87.61
45078;BME280;60508;42.622;25.416;2022-12-18T05:10:21;97604.91;;;11.12;87.69
45078;BME280;60508;42.622;25.416;2022-12-18T05:12:47;97610.44;;;11.17;87.21
45078;BME280;60508;42.622;25.416;2022-12-18T05:15:29;97607.16;;;11.15;86.69
45078;BME280;60508;42.622;25.416;2022-12-18T05:17:56;97612.75;;;11.13;85.93
45078;BME280;60508;42.622;25.416;2022-12-18T05:20:22;97619.88;;;11.08;85.65
45078;BME280;60508;42.622;25.416;2022-12-18T05:22:48;97620.59;;;11.15;85.49
45078;BME280;60508;42.622;25.416;2022-12-18T05:25:14;97619.03;;;11.26;84.77
45078;BME280;60508;42.622;25.416;2022-12-18T05:27:40;97623.88;;;11.17;85.14
45078;BME280;60508;42.622;25.416;2022-12-18T05:30:07;97625.91;;;11.22;85.10
45078;BME280;60508;42.622;25.416;2022-12-18T05:32:33;97625.69;;;11.23;84.83
45078;BME280;60508;42.622;25.416;2022-12-18T05:34:59;97624.72;;;11.18;84.84
45078;BME280;60508;42.622;25.416;2022-12-18T05:37:25;97637.94;;;11.19;84.35
45078;BME280;60508;42.622;25.416;2022-12-18T05:39:51;97628.72;;;11.27;83.89
45078;BME280;60508;42.622;25.416;2022-12-18T05:42:16;97627.69;;;11.28;83.55
45078;BME280;60508;42.622;25.416;2022-12-18T05:44:43;97636.34;;;11.30;83.00
45078;BME280;60508;42.622;25.416;2022-12-18T05:47:09;97627.69;;;11.28;83.21
45078;BME280;60508;42.622;25.416;2022-12-18T05:49:35;97638.75;;;11.20;83.67
45078;BME280;60508;42.622;25.416;2022-12-18T05:52:01;97641.00;;;11.23;83.42
45078;BME280;60508;42.622;25.416;2022-12-18T05:54:27;97638.22;;;11.29;82.82
45078;BME280;60508;42.622;25.416;2022-12-18T05:56:53;97639.94;;;11.24;83.10
45078;BME280;60508;42.622;25.416;2022-12-18T05:59:19;97650.41;;;11.32;82.60
45078;BME280;60508;42.622;25.416;2022-12-18T06:01:46;97659.31;;;11.32;82.23
45078;BME280;60508;42.622;25.416;2022-12-18T06:04:12;97656.69;;;11.26;82.76
45078;BME280;60508;42.622;25.416;2022-12-18T06:06:38;97661.41;;;11.30;82.85
45078;BME280;60508;42.622;25.416;2022-12-18T06:09:04;97670.88;;;11.33;82.83
45078;BME280;60508;42.622;25.416;2022-12-18T06:11:35;97671.94;;;11.32;82.89
45078;BME280;60508;42.622;25.416;2022-12-18T06:14:02;97677.81;;;11.41;82.43
45078;BME280;60508;42.622;25.416;2022-12-18T06:16:28;97679.94;;;11.39;82.18
45078;BME280;60508;42.622;25.416;2022-12-18T06:19:03;97678.94;;;11.33;83.09
45078;BME280;60508;42.622;25.416;2022-12-18T06:21:30;97690.69;;;11.39;82.71
45078;BME280;60508;42.622;25.416;2022-12-18T06:23:56;97690.06;;;11.37;83.38
45078;BME280;60508;42.622;25.416;2022-12-18T06:26:23;97701.69;;;11.37;83.38
45078;BME280;60508;42.622;25.416;2022-12-18T06:28:49;97698.91;;;11.25;83.89
45078;BME280;60508;42.622;25.416;2022-12-18T06:31:15;97708.09;;;11.36;83.71
45078;BME280;60508;42.622;25.416;2022-12-18T06:33:41;97716.16;;;11.36;83.86
45078;BME280;60508;42.622;25.416;2022-12-18T06:36:12;97725.75;;;11.32;83.63
45078;BME280;60508;42.622;25.416;2022-12-18T06:43:02;97741.28;;;11.30;83.88
45078;BME280;60508;42.622;25.416;2022-12-18T06:45:28;97740.31;;;11.43;82.93
45078;BME280;60508;42.622;25.416;2022-12-18T06:47:54;97734.41;;;11.34;82.19
45078;BME280;60508;42.622;25.416;2022-12-18T06:50:20;97751.66;;;11.26;82.18
45078;BME280;60508;42.622;25.416;2022-12-18T06:52:45;97750.56;;;11.34;81.75
45078;BME280;60508;42.622;25.416;2022-12-18T06:55:11;97763.25;;;11.45;81.45
45078;BME280;60508;42.622;25.416;2022-12-18T06:57:37;97744.19;;;11.47;81.19
45078;BME280;60508;42.622;25.416;2022-12-18T07:00:05;97754.22;;;11.58;80.51
45078;BME280;60508;42.622;25.416;2022-12-18T07:02:32;97764.81;;;11.72;79.68
45078;BME280;60508;42.622;25.416;2022-12-18T07:04:58;97765.31;;;11.80;78.24
45078;BME280;60508;42.622;25.416;2022-12-18T07:07:24;97774.88;;;11.95;77.76
45078;BME280;60508;42.622;25.416;2022-12-18T07:09:50;97768.09;;;11.92;76.57
45078;BME280;60508;42.622;25.416;2022-12-18T07:12:16;97771.31;;;11.82;76.75
45078;BME280;60508;42.622;25.416;2022-12-18T07:14:43;97785.00;;;11.81;77.29
45078;BME280;60508;42.622;25.416;2022-12-18T07:17:08;97786.72;;;11.75;78.00
45078;BME280;60508;42.622;25.416;2022-12-18T07:19:34;97777.38;;;11.59;78.58
45078;BME280;60508;42.622;25.416;2022-12-18T07:22:00;97783.38;;;11.61;79.08
45078;BME280;60508;42.622;25.416;2022-12-18T07:24:27;97789.13;;;11.65;79.11
45078;BME280;60508;42.622;25.416;2022-12-18T07:26:53;97784.19;;;11.62;79.51
45078;BME280;60508;42.622;25.416;2022-12-18T07:29:19;97788.91;;;11.66;79.46
45078;BME280;60508;42.622;25.416;2022-12-18T07:31:45;97792.13;;;11.57;79.55
45078;BME280;60508;42.622;25.416;2022-12-18T07:34:12;97798.16;;;11.33;81.60
45078;BME280;60508;42.622;25.416;2022-12-18T07:36:38;97789.34;;;11.26;83.30
45078;BME280;60508;42.622;25.416;2022-12-18T07:39:04;97798.16;;;11.52;82.90
45078;BME280;60508;42.622;25.416;2022-12-18T07:41:30;97787.53;;;11.57;82.21
45078;BME280;60508;42.622;25.416;2022-12-18T07:43:59;97782.94;;;11.64;81.65
45078;BME280;60508;42.622;25.416;2022-12-18T07:46:24;97787.31;;;11.77;80.28
45078;BME280;60508;42.622;25.416;2022-12-18T07:48:50;97788.59;;;11.75;79.95
45078;BME280;60508;42.622;25.416;2022-12-18T07:51:17;97789.81;;;11.42;79.13
45078;BME280;60508;42.622;25.416;2022-12-18T07:53:43;97796.88;;;11.18;80.62
45078;BME280;60508;42.622;25.416;2022-12-18T07:56:11;97802.97;;;11.50;81.60
45078;BME280;60508;42.622;25.416;2022-12-18T07:58:37;97803.69;;;11.57;81.34
45078;BME280;60508;42.622;25.416;2022-12-18T08:01:09;97804.25;;;11.66;79.46
45078;BME280;60508;42.622;25.416;2022-12-18T08:03:36;97808.59;;;11.79;78.43
45078;BME280;60508;42.622;25.416;2022-12-18T08:06:03;97808.56;;;11.85;77.59
45078;BME280;60508;42.622;25.416;2022-12-18T08:08:29;97814.31;;;11.89;77.29
45078;BME280;60508;42.622;25.416;2022-12-18T08:10:56;97808.78;;;11.84;77.14
45078;BME280;60508;42.622;25.416;2022-12-18T08:13:22;97822.47;;;11.82;75.20
45078;BME280;60508;42.622;25.416;2022-12-18T08:16:01;97820.22;;;11.79;75.10
45078;BME280;60508;42.622;25.416;2022-12-18T08:18:28;97823.00;;;11.73;74.94
45078;BME280;60508;42.622;25.416;2022-12-18T08:20:55;97823.38;;;11.76;74.65
45078;BME280;60508;42.622;25.416;2022-12-18T08:23:21;97821.34;;;11.72;73.94
45078;BME280;60508;42.622;25.416;2022-12-18T08:25:47;97823.56;;;11.56;73.83
45078;BME280;60508;42.622;25.416;2022-12-18T08:28:15;97825.38;;;11.62;73.79
45078;BME280;60508;42.622;25.416;2022-12-18T08:30:41;97834.97;;;11.58;72.63
45078;BME280;60508;42.622;25.416;2022-12-18T08:33:08;97817.38;;;11.56;72.78
45078;BME280;60508;42.622;25.416;2022-12-18T08:35:36;97822.59;;;11.69;73.54
45078;BME280;60508;42.622;25.416;2022-12-18T08:38:03;97812.81;;;11.75;73.08
45078;BME280;60508;42.622;25.416;2022-12-18T08:40:29;97830.84;;;11.74;72.56
45078;BME280;60508;42.622;25.416;2022-12-18T08:42:55;97828.59;;;11.90;72.62
45078;BME280;60508;42.622;25.416;2022-12-18T08:45:39;97830.91;;;12.04;72.68
45078;BME280;60508;42.622;25.416;2022-12-18T08:48:05;97833.53;;;12.11;72.32
45078;BME280;60508;42.622;25.416;2022-12-18T08:50:31;97836.06;;;12.24;72.04
45078;BME280;60508;42.622;25.416;2022-12-18T08:52:57;97828.09;;;12.30;72.27
45078;BME280;60508;42.622;25.416;2022-12-18T08:55:23;97839.25;;;12.33;72.01
45078;BME280;60508;42.622;25.416;2022-12-18T08:57:50;97844.00;;;12.01;72.69
45078;BME280;60508;42.622;25.416;2022-12-18T09:00:16;97840.13;;;11.60;73.88
45078;BME280;60508;42.622;25.416;2022-12-18T09:02:42;97844.59;;;11.29;72.03
45078;BME280;60508;42.622;25.416;2022-12-18T09:05:08;97853.44;;;11.55;71.48
45078;BME280;60508;42.622;25.416;2022-12-18T09:07:34;97854.31;;;11.67;70.61
45078;BME280;60508;42.622;25.416;2022-12-18T09:10:00;97851.78;;;11.91;69.66
45078;BME280;60508;42.622;25.416;2022-12-18T09:12:26;97861.47;;;11.98;69.45
45078;BME280;60508;42.622;25.416;2022-12-18T09:14:52;97855.53;;;12.08;68.29
45078;BME280;60508;42.622;25.416;2022-12-18T09:17:18;97854.69;;;12.08;67.80
45078;BME280;60508;42.622;25.416;2022-12-18T09:19:44;97861.06;;;12.13;66.25
45078;BME280;60508;42.622;25.416;2022-12-18T09:22:10;97865.56;;;12.19;66.17
45078;BME280;60508;42.622;25.416;2022-12-18T09:24:36;97864.66;;;12.07;65.69
45078;BME280;60508;42.622;25.416;2022-12-18T09:27:02;97859.94;;;12.02;66.11
45078;BME280;60508;42.622;25.416;2022-12-18T09:29:28;97847.66;;;11.88;65.83
45078;BME280;60508;42.622;25.416;2022-12-18T09:31:54;97863.31;;;11.98;65.69
45078;BME280;60508;42.622;25.416;2022-12-18T09:34:20;97871.22;;;11.56;65.52
45078;BME280;60508;42.622;25.416;2022-12-18T09:36:47;97868.34;;;11.76;65.40
45078;BME280;60508;42.622;25.416;2022-12-18T09:39:14;97868.75;;;11.91;65.30
45078;BME280;60508;42.622;25.416;2022-12-18T09:44:22;97862.88;;;12.19;64.22
45078;BME280;60508;42.622;25.416;2022-12-18T09:47:12;97844.59;;;12.21;64.63
45078;BME280;60508;42.622;25.416;2022-12-18T09:49:43;97861.13;;;12.25;63.66
45078;BME280;60508;42.622;25.416;2022-12-18T09:52:17;97865.06;;;12.41;63.21
45078;BME280;60508;42.622;25.416;2022-12-18T09:54:53;97868.72;;;12.47;63.87
45078;BME280;60508;42.622;25.416;2022-12-18T09:57:22;97865.47;;;12.56;62.42
45078;BME280;60508;42.622;25.416;2022-12-18T09:59:55;97861.78;;;12.39;62.58
45078;BME280;60508;42.622;25.416;2022-12-18T10:02:26;97866.41;;;12.32;62.45
45078;BME280;60508;42.622;25.416;2022-12-18T10:05:03;97859.56;;;12.17;62.66
45078;BME280;60508;42.622;25.416;2022-12-18T10:07:35;97859.13;;;12.02;63.24
45078;BME280;60508;42.622;25.416;2022-12-18T10:16:14;97869.94;;;11.77;63.72
45078;BME280;60508;42.622;25.416;2022-12-18T10:21:31;97876.97;;;11.59;63.58
45078;BME280;60508;42.622;25.416;2022-12-18T10:24:24;97874.13;;;11.36;65.38
45078;BME280;60508;42.622;25.416;2022-12-18T10:26:59;97878.84;;;11.40;65.93
45078;BME280;60508;42.622;25.416;2022-12-18T10:29:34;97885.03;;;11.41;66.14
45078;BME280;60508;42.622;25.416;2022-12-18T10:32:00;97884.72;;;11.30;66.29
45078;BME280;60508;42.622;25.416;2022-12-18T10:34:26;97886.47;;;11.43;66.46
45078;BME280;60508;42.622;25.416;2022-12-18T10:36:52;97879.72;;;11.52;65.46
45078;BME280;60508;42.622;25.416;2022-12-18T10:39:24;97872.50;;;11.53;65.84
45078;BME280;60508;42.622;25.416;2022-12-18T10:42:09;97880.16;;;11.49;64.53
45078;BME280;60508;42.622;25.416;2022-12-18T10:44:35;97874.84;;;11.43;64.33
45078;BME280;60508;42.622;25.416;2022-12-18T10:47:06;97879.94;;;11.51;64.58
45078;BME280;60508;42.622;25.416;2022-12-18T10:49:39;97884.09;;;11.54;63.82
45078;BME280;60508;42.622;25.416;2022-12-18T10:52:15;97875.72;;;11.62;62.89
45078;BME280;60508;42.622;25.416;2022-12-18T10:54:58;97884.16;;;11.47;63.03
45078;BME280;60508;42.622;25.416;2022-12-18T10:59:54;97883.25;;;11.53;64.02
45078;BME280;60508;42.622;25.416;2022-12-18T11:04:52;97880.66;;;11.65;63.02
45078;BME280;60508;42.622;25.416;2022-12-18T11:07:18;97892.91;;;11.61;62.47
45078;BME280;60508;42.622;25.416;2022-12-18T11:09:59;97891.13;;;11.55;62.64
45078;BME280;60508;42.622;25.416;2022-12-18T11:12:28;97886.00;;;11.46;63.14
45078;BME280;60508;42.622;25.416;2022-12-18T11:14:57;97888.97;;;11.38;63.67
45078;BME280;60508;42.622;25.416;2022-12-18T11:17:32;97896.22;;;11.38;63.69
45078;BME280;60508;42.622;25.416;2022-12-18T11:20:52;97908.47;;;11.33;63.38
45078;BME280;60508;42.622;25.416;2022-12-18T11:23:12;97911.66;;;11.24;64.62
45078;BME280;60508;42.622;25.416;2022-12-18T11:25:39;97907.78;;;11.20;64.06
45078;BME280;60508;42.622;25.416;2022-12-18T11:32:34;97910.78;;;10.73;67.04
45078;BME280;60508;42.622;25.416;2022-12-18T11:37:39;97917.25;;;10.65;68.51
45078;BME280;60508;42.622;25.416;2022-12-18T11:40:14;97931.50;;;10.66;68.77
45078;BME280;60508;42.622;25.416;2022-12-18T11:45:33;97926.81;;;10.54;69.49
45078;BME280;60508;42.622;25.416;2022-12-18T11:51:01;97906.66;;;10.25;70.60
45078;BME280;60508;42.622;25.416;2022-12-18T11:53:29;97901.72;;;10.29;71.96
45078;BME280;60508;42.622;25.416;2022-12-18T11:58:46;97907.69;;;10.37;71.73
45078;BME280;60508;42.622;25.416;2022-12-18T12:12:37;97909.72;;;10.42;70.85
45078;BME280;60508;42.622;25.416;2022-12-18T12:18:26;97911.63;;;10.35;71.15
45078;BME280;60508;42.622;25.416;2022-12-18T12:24:05;97913.56;;;10.08;72.19
45078;BME280;60508;42.622;25.416;2022-12-18T12:39:59;97939.25;;;9.83;74.67
45078;BME280;60508;42.622;25.416;2022-12-18T12:42:35;97946.25;;;9.84;75.16
45078;BME280;60508;42.622;25.416;2022-12-18T12:45:29;97952.84;;;10.02;74.68
45078;BME280;60508;42.622;25.416;2022-12-18T12:48:01;97947.47;;;10.02;74.77
45078;BME280;60508;42.622;25.416;2022-12-18T12:50:33;97958.38;;;10.14;73.88
45078;BME280;60508;42.622;25.416;2022-12-18T12:53:01;97951.16;;;10.14;74.11
45078;BME280;60508;42.622;25.416;2022-12-18T12:55:32;97952.16;;;10.20;74.27
45078;BME280;60508;42.622;25.416;2022-12-18T12:58:06;97954.63;;;10.21;74.31
45078;BME280;60508;42.622;25.416;2022-12-18T13:00:44;97959.41;;;10.13;74.29
45078;BME280;60508;42.622;25.416;2022-12-18T13:06:03;97962.75;;;10.01;74.67
45078;BME280;60508;42.622;25.416;2022-12-18T13:11:32;97960.94;;;9.89;75.36
45078;BME280;60508;42.622;25.416;2022-12-18T13:14:32;97975.97;;;9.96;75.86
45078;BME280;60508;42.622;25.416;2022-12-18T13:20:05;97974.91;;;10.11;74.87
45078;BME280;60508;42.622;25.416;2022-12-18T13:22:37;97967.31;;;9.87;75.46
45078;BME280;60508;42.622;25.416;2022-12-18T13:25:30;97961.75;;;9.89;75.56
45078;BME280;60508;42.622;25.416;2022-12-18T13:27:59;97975.75;;;9.98;75.73
45078;BME280;60508;42.622;25.416;2022-12-18T13:41:03;97985.06;;;9.95;76.41
45078;BME280;60508;42.622;25.416;2022-12-18T13:43:32;98001.38;;;9.94;76.57
45078;BME280;60508;42.622;25.416;2022-12-18T13:51:20;98006.13;;;9.98;76.16
45078;BME280;60508;42.622;25.416;2022-12-18T13:53:53;97998.69;;;10.00;76.07
45078;BME280;60508;42.622;25.416;2022-12-18T13:56:26;97996.41;;;9.97;75.74
45078;BME280;60508;42.622;25.416;2022-12-18T13:59:16;97997.25;;;9.84;76.43
45078;BME280;60508;42.622;25.416;2022-12-18T14:02:27;98007.59;;;9.87;76.41
45078;BME280;60508;42.622;25.416;2022-12-18T14:04:34;97997.28;;;9.78;76.97
45078;BME280;60508;42.622;25.416;2022-12-18T14:07:12;98006.16;;;9.78;76.22
45078;BME280;60508;42.622;25.416;2022-12-18T14:09:42;98000.38;;;9.75;76.62
45078;BME280;60508;42.622;25.416;2022-12-18T14:12:20;98001.22;;;9.55;77.06
45078;BME280;60508;42.622;25.416;2022-12-18T14:18:25;98018.13;;;9.56;76.61
45078;BME280;60508;42.622;25.416;2022-12-18T14:20:54;98023.91;;;9.39;76.82
45078;BME280;60508;42.622;25.416;2022-12-18T14:23:40;98022.22;;;9.18;78.49
45078;BME280;60508;42.622;25.416;2022-12-18T14:26:23;98024.72;;;9.33;78.34
45078;BME280;60508;42.622;25.416;2022-12-18T14:28:51;98025.16;;;9.43;77.29
45078;BME280;60508;42.622;25.416;2022-12-18T14:31:21;98029.47;;;9.44;76.82
45078;BME280;60508;42.622;25.416;2022-12-18T14:33:47;98026.78;;;9.44;76.73
45078;BME280;60508;42.622;25.416;2022-12-18T14:36:22;98033.41;;;9.48;76.85
45078;BME280;60508;42.622;25.416;2022-12-18T14:38:53;98043.72;;;9.45;76.66
45078;BME280;60508;42.622;25.416;2022-12-18T14:41:21;98047.84;;;9.41;76.02
45078;BME280;60508;42.622;25.416;2022-12-18T14:43:50;98051.13;;;9.43;75.90
45078;BME280;60508;42.622;25.416;2022-12-18T14:46:29;98047.84;;;9.27;75.99
45078;BME280;60508;42.622;25.416;2022-12-18T14:48:56;98056.69;;;9.28;75.83
45078;BME280;60508;42.622;25.416;2022-12-18T14:51:26;98049.06;;;9.31;75.72
45078;BME280;60508;42.622;25.416;2022-12-18T14:54:04;98036.09;;;9.35;74.78
45078;BME280;60508;42.622;25.416;2022-12-18T14:56:36;98048.84;;;9.26;75.69
45078;BME280;60508;42.622;25.416;2022-12-18T14:59:04;98053.19;;;9.21;75.87